Terminal Aerodrome Forecast
Issued by NWS

Home | Current Version | Previous Version | Text Only | Print | Product List | Glossary On
Versions: 1 2 3 4 5 6 7 8 9 10 11 12 13
000
FTUS46 KMTR 211121
TAFMRY
TAF
KMRY 211121Z 2112/2212 10005KT P6SM SCT030 BKN100
     FM212000 29006KT P6SM FEW030 BKN100
     FM220500 12005KT P6SM SCT015 BKN060=

USA.gov is the U.S. government's official web portal to all federal, state and local government web resources and services.